sensor_id;sensor_type;location;lat;lon;timestamp;temperature;humidity
2100;DHT22;1055;48.854;9.302;2023-02-28T00:01:31;-0.80;99.90
2100;DHT22;1055;48.854;9.302;2023-02-28T00:03:59;-0.80;99.90
2100;DHT22;1055;48.854;9.302;2023-02-28T00:06:28;-0.80;99.90
2100;DHT22;1055;48.854;9.302;2023-02-28T00:08:54;-0.70;99.90
2100;DHT22;1055;48.854;9.302;2023-02-28T00:11:22;-0.90;99.90
2100;DHT22;1055;48.854;9.302;2023-02-28T00:13:50;-1.10;99.90
2100;DHT22;1055;48.854;9.302;2023-02-28T00:16:19;-1.30;99.90
2100;DHT22;1055;48.854;9.302;2023-02-28T00:18:49;-1.10;99.90
2100;DHT22;1055;48.854;9.302;2023-02-28T00:21:17;-1.10;99.90
2100;DHT22;1055;48.854;9.302;2023-02-28T00:23:45;-1.00;99.90
2100;DHT22;1055;48.854;9.302;2023-02-28T00:26:11;-1.10;99.90
2100;DHT22;1055;48.854;9.302;2023-02-28T00:28:38;-1.00;99.90
2100;DHT22;1055;48.854;9.302;2023-02-28T00:31:04;-1.40;99.90
2100;DHT22;1055;48.854;9.302;2023-02-28T00:33:31;-1.40;99.90
2100;DHT22;1055;48.854;9.302;2023-02-28T00:36:06;-1.30;99.90
2100;DHT22;1055;48.854;9.302;2023-02-28T00:38:35;-1.30;99.90
2100;DHT22;1055;48.854;9.302;2023-02-28T00:41:01;-1.20;99.90
2100;DHT22;1055;48.854;9.302;2023-02-28T00:43:33;-1.10;99.90
2100;DHT22;1055;48.854;9.302;2023-02-28T00:46:01;-1.50;99.90
2100;DHT22;1055;48.854;9.302;2023-02-28T00:48:29;-1.30;99.90
2100;DHT22;1055;48.854;9.302;2023-02-28T00:50:59;-1.30;99.90
2100;DHT22;1055;48.854;9.302;2023-02-28T00:53:25;-1.30;99.90
2100;DHT22;1055;48.854;9.302;2023-02-28T00:56:00;-1.20;99.90
2100;DHT22;1055;48.854;9.302;2023-02-28T00:58:27;-1.20;99.90
2100;DHT22;1055;48.854;9.302;2023-02-28T01:00:53;-1.30;99.90
2100;DHT22;1055;48.854;9.302;2023-02-28T01:03:20;-1.20;99.90
2100;DHT22;1055;48.854;9.302;2023-02-28T01:05:46;-1.20;99.90
2100;DHT22;1055;48.854;9.302;2023-02-28T01:08:12;-1.20;99.90
2100;DHT22;1055;48.854;9.302;2023-02-28T01:10:39;-1.30;99.90
2100;DHT22;1055;48.854;9.302;2023-02-28T01:13:05;-1.30;99.90
2100;DHT22;1055;48.854;9.302;2023-02-28T01:15:31;-1.40;99.90
2100;DHT22;1055;48.854;9.302;2023-02-28T01:17:57;-1.30;99.90
2100;DHT22;1055;48.854;9.302;2023-02-28T01:20:23;-1.30;99.90
2100;DHT22;1055;48.854;9.302;2023-02-28T01:22:49;-1.30;99.90
2100;DHT22;1055;48.854;9.302;2023-02-28T01:25:15;-1.20;99.90
2100;DHT22;1055;48.854;9.302;2023-02-28T01:27:40;-1.40;99.90
2100;DHT22;1055;48.854;9.302;2023-02-28T01:30:10;-1.30;99.90
2100;DHT22;1055;48.854;9.302;2023-02-28T01:32:36;-1.40;99.90
2100;DHT22;1055;48.854;9.302;2023-02-28T01:35:02;-1.50;99.90
2100;DHT22;1055;48.854;9.302;2023-02-28T01:37:27;-1.40;99.90
2100;DHT22;1055;48.854;9.302;2023-02-28T01:39:53;-1.40;99.90
2100;DHT22;1055;48.854;9.302;2023-02-28T01:42:19;-1.50;99.90
2100;DHT22;1055;48.854;9.302;2023-02-28T01:47:20;-1.30;99.90
2100;DHT22;1055;48.854;9.302;2023-02-28T01:49:46;-1.30;99.90
2100;DHT22;1055;48.854;9.302;2023-02-28T01:52:14;-1.50;99.90
2100;DHT22;1055;48.854;9.302;2023-02-28T01:54:46;-1.30;99.90
2100;DHT22;1055;48.854;9.302;2023-02-28T01:57:17;-1.30;99.90
2100;DHT22;1055;48.854;9.302;2023-02-28T01:59:50;-1.40;99.90
2100;DHT22;1055;48.854;9.302;2023-02-28T02:02:22;-1.30;99.90
2100;DHT22;1055;48.854;9.302;2023-02-28T02:05:00;-1.10;99.90
2100;DHT22;1055;48.854;9.302;2023-02-28T02:07:36;-1.00;99.90
2100;DHT22;1055;48.854;9.302;2023-02-28T02:10:15;-1.30;99.90
2100;DHT22;1055;48.854;9.302;2023-02-28T02:15:18;-1.50;99.90
2100;DHT22;1055;48.854;9.302;2023-02-28T02:17:51;-1.60;99.90
2100;DHT22;1055;48.854;9.302;2023-02-28T02:31:41;-1.60;99.90
2100;DHT22;1055;48.854;9.302;2023-02-28T02:34:33;-1.40;99.90
2100;DHT22;1055;48.854;9.302;2023-02-28T02:40:16;-1.40;99.90
2100;DHT22;1055;48.854;9.302;2023-02-28T02:42:58;-1.40;99.90
2100;DHT22;1055;48.854;9.302;2023-02-28T02:45:49;-1.40;99.90
2100;DHT22;1055;48.854;9.302;2023-02-28T02:48:20;-1.60;99.90
2100;DHT22;1055;48.854;9.302;2023-02-28T02:50:51;-1.40;99.90
2100;DHT22;1055;48.854;9.302;2023-02-28T02:53:22;-1.50;99.90
2100;DHT22;1055;48.854;9.302;2023-02-28T02:55:51;-1.30;99.90
2100;DHT22;1055;48.854;9.302;2023-02-28T02:58:24;-1.30;99.90
2100;DHT22;1055;48.854;9.302;2023-02-28T03:00:53;-1.40;99.90
2100;DHT22;1055;48.854;9.302;2023-02-28T03:03:21;-1.30;99.90
2100;DHT22;1055;48.854;9.302;2023-02-28T03:05:57;-1.20;99.90
2100;DHT22;1055;48.854;9.302;2023-02-28T03:08:24;-1.20;99.90
2100;DHT22;1055;48.854;9.302;2023-02-28T03:10:52;-1.30;99.90
2100;DHT22;1055;48.854;9.302;2023-02-28T03:13:38;-1.50;99.90
2100;DHT22;1055;48.854;9.302;2023-02-28T03:27:29;-1.30;99.90
2100;DHT22;1055;48.854;9.302;2023-02-28T03:30:06;-1.10;99.90
2100;DHT22;1055;48.854;9.302;2023-02-28T03:32:40;-1.30;99.90
2100;DHT22;1055;48.854;9.302;2023-02-28T03:35:19;-1.20;99.90
2100;DHT22;1055;48.854;9.302;2023-02-28T03:37:50;-1.20;99.90
2100;DHT22;1055;48.854;9.302;2023-02-28T03:40:20;-1.40;99.90
2100;DHT22;1055;48.854;9.302;2023-02-28T03:42:50;-1.20;99.90
2100;DHT22;1055;48.854;9.302;2023-02-28T03:45:26;-1.10;99.90
2100;DHT22;1055;48.854;9.302;2023-02-28T03:50:45;-1.10;99.90
2100;DHT22;1055;48.854;9.302;2023-02-28T03:53:21;-1.00;99.90
2100;DHT22;1055;48.854;9.302;2023-02-28T03:55:54;-1.10;99.90
2100;DHT22;1055;48.854;9.302;2023-02-28T04:01:25;-1.10;99.90
2100;DHT22;1055;48.854;9.302;2023-02-28T04:03:52;-1.00;99.90
2100;DHT22;1055;48.854;9.302;2023-02-28T04:06:20;-1.10;99.90
2100;DHT22;1055;48.854;9.302;2023-02-28T04:08:47;-0.90;99.90
2100;DHT22;1055;48.854;9.302;2023-02-28T04:13:42;-1.00;99.90
2100;DHT22;1055;48.854;9.302;2023-02-28T04:16:08;-1.10;99.90
2100;DHT22;1055;48.854;9.302;2023-02-28T04:18:40;-1.00;99.90
2100;DHT22;1055;48.854;9.302;2023-02-28T04:21:06;-1.00;99.90
2100;DHT22;1055;48.854;9.302;2023-02-28T04:23:32;-0.90;99.90
2100;DHT22;1055;48.854;9.302;2023-02-28T04:25:58;-0.80;99.90
2100;DHT22;1055;48.854;9.302;2023-02-28T04:28:24;-0.90;99.90
2100;DHT22;1055;48.854;9.302;2023-02-28T04:31:02;-0.90;99.90
2100;DHT22;1055;48.854;9.302;2023-02-28T04:33:29;-1.00;99.90
2100;DHT22;1055;48.854;9.302;2023-02-28T04:36:06;-0.80;99.90
2100;DHT22;1055;48.854;9.302;2023-02-28T04:38:36;-1.00;99.90
2100;DHT22;1055;48.854;9.302;2023-02-28T04:41:03;-0.70;99.90
2100;DHT22;1055;48.854;9.302;2023-02-28T04:43:29;-0.50;99.90
2100;DHT22;1055;48.854;9.302;2023-02-28T04:45:56;-0.60;99.90
2100;DHT22;1055;48.854;9.302;2023-02-28T04:48:25;-0.60;99.90
2100;DHT22;1055;48.854;9.302;2023-02-28T04:50:52;-0.70;99.90
2100;DHT22;1055;48.854;9.302;2023-02-28T04:53:18;-0.80;99.90
2100;DHT22;1055;48.854;9.302;2023-02-28T04:55:44;-0.90;99.90
2100;DHT22;1055;48.854;9.302;2023-02-28T04:58:10;-0.90;99.90
2100;DHT22;1055;48.854;9.302;2023-02-28T05:00:36;-0.90;99.90
2100;DHT22;1055;48.854;9.302;2023-02-28T05:03:02;-0.80;99.90
2100;DHT22;1055;48.854;9.302;2023-02-28T05:05:27;-0.70;99.90
2100;DHT22;1055;48.854;9.302;2023-02-28T05:07:53;-0.70;99.90
2100;DHT22;1055;48.854;9.302;2023-02-28T05:10:21;-0.60;99.90
2100;DHT22;1055;48.854;9.302;2023-02-28T05:12:47;-0.70;99.90
2100;DHT22;1055;48.854;9.302;2023-02-28T05:15:14;-0.80;99.90
2100;DHT22;1055;48.854;9.302;2023-02-28T05:17:40;-0.60;99.90
2100;DHT22;1055;48.854;9.302;2023-02-28T05:20:06;-0.60;99.90
2100;DHT22;1055;48.854;9.302;2023-02-28T05:22:32;-0.70;99.90
2100;DHT22;1055;48.854;9.302;2023-02-28T05:24:58;-0.50;99.90
2100;DHT22;1055;48.854;9.302;2023-02-28T05:27:23;-0.60;99.90
2100;DHT22;1055;48.854;9.302;2023-02-28T05:29:49;-0.50;99.90
2100;DHT22;1055;48.854;9.302;2023-02-28T05:32:15;-0.60;99.90
2100;DHT22;1055;48.854;9.302;2023-02-28T05:34:41;-0.50;99.90
2100;DHT22;1055;48.854;9.302;2023-02-28T05:37:12;-0.80;99.90
2100;DHT22;1055;48.854;9.302;2023-02-28T05:39:38;-0.70;99.90
2100;DHT22;1055;48.854;9.302;2023-02-28T05:42:04;-0.60;99.90
2100;DHT22;1055;48.854;9.302;2023-02-28T05:44:30;-0.60;99.90
2100;DHT22;1055;48.854;9.302;2023-02-28T05:46:56;-0.70;99.90
2100;DHT22;1055;48.854;9.302;2023-02-28T05:49:21;-0.50;99.90
2100;DHT22;1055;48.854;9.302;2023-02-28T05:51:47;-0.60;99.90
2100;DHT22;1055;48.854;9.302;2023-02-28T05:54:13;-0.60;99.90
2100;DHT22;1055;48.854;9.302;2023-02-28T05:56:38;-0.50;99.90
2100;DHT22;1055;48.854;9.302;2023-02-28T05:59:06;-0.30;99.90
2100;DHT22;1055;48.854;9.302;2023-02-28T06:01:35;-0.60;99.90
2100;DHT22;1055;48.854;9.302;2023-02-28T06:04:03;-0.50;99.90
2100;DHT22;1055;48.854;9.302;2023-02-28T06:06:29;-0.40;99.90
2100;DHT22;1055;48.854;9.302;2023-02-28T06:08:55;-0.30;99.90
2100;DHT22;1055;48.854;9.302;2023-02-28T06:11:21;-0.60;99.90
2100;DHT22;1055;48.854;9.302;2023-02-28T06:13:53;-0.60;99.90
2100;DHT22;1055;48.854;9.302;2023-02-28T06:16:19;-0.60;99.90
2100;DHT22;1055;48.854;9.302;2023-02-28T06:18:45;-0.60;99.90
2100;DHT22;1055;48.854;9.302;2023-02-28T06:21:12;-0.70;99.90
2100;DHT22;1055;48.854;9.302;2023-02-28T06:23:38;-0.50;99.90
2100;DHT22;1055;48.854;9.302;2023-02-28T06:26:03;-0.50;99.90
2100;DHT22;1055;48.854;9.302;2023-02-28T06:28:29;-0.50;99.90
2100;DHT22;1055;48.854;9.302;2023-02-28T06:30:55;-0.60;99.90
2100;DHT22;1055;48.854;9.302;2023-02-28T06:33:21;-0.50;99.90
2100;DHT22;1055;48.854;9.302;2023-02-28T06:35:49;-0.20;99.90
2100;DHT22;1055;48.854;9.302;2023-02-28T06:38:15;-0.20;99.90
2100;DHT22;1055;48.854;9.302;2023-02-28T06:40:41;-0.40;99.90
2100;DHT22;1055;48.854;9.302;2023-02-28T06:43:07;-0.30;99.90
2100;DHT22;1055;48.854;9.302;2023-02-28T06:45:32;-0.40;99.90
2100;DHT22;1055;48.854;9.302;2023-02-28T06:47:58;-0.30;99.90
2100;DHT22;1055;48.854;9.302;2023-02-28T06:50:25;-0.20;99.90
2100;DHT22;1055;48.854;9.302;2023-02-28T06:52:52;-0.10;99.90
2100;DHT22;1055;48.854;9.302;2023-02-28T06:55:19;-0.10;99.90
2100;DHT22;1055;48.854;9.302;2023-02-28T06:57:45;-0.20;99.90
2100;DHT22;1055;48.854;9.302;2023-02-28T07:00:11;0.10;99.90
2100;DHT22;1055;48.854;9.302;2023-02-28T07:02:37;0.00;99.90
2100;DHT22;1055;48.854;9.302;2023-02-28T07:05:06;-0.10;99.90
2100;DHT22;1055;48.854;9.302;2023-02-28T07:07:32;0.10;99.90
2100;DHT22;1055;48.854;9.302;2023-02-28T07:09:58;0.20;99.90
2100;DHT22;1055;48.854;9.302;2023-02-28T07:12:24;0.20;99.90
2100;DHT22;1055;48.854;9.302;2023-02-28T07:14:50;0.10;99.90
2100;DHT22;1055;48.854;9.302;2023-02-28T07:17:15;0.00;99.90
2100;DHT22;1055;48.854;9.302;2023-02-28T07:19:41;0.10;99.90
2100;DHT22;1055;48.854;9.302;2023-02-28T07:22:07;0.00;99.90
2100;DHT22;1055;48.854;9.302;2023-02-28T07:24:32;0.20;99.90
2100;DHT22;1055;48.854;9.302;2023-02-28T07:26:58;0.00;99.90
2100;DHT22;1055;48.854;9.302;2023-02-28T07:29:25;0.00;99.90
2100;DHT22;1055;48.854;9.302;2023-02-28T07:31:50;0.00;99.90
2100;DHT22;1055;48.854;9.302;2023-02-28T07:34:19;-0.30;99.90
2100;DHT22;1055;48.854;9.302;2023-02-28T07:36:44;-0.20;99.90
2100;DHT22;1055;48.854;9.302;2023-02-28T07:39:10;-0.30;99.90
2100;DHT22;1055;48.854;9.302;2023-02-28T07:41:35;-0.20;99.90
2100;DHT22;1055;48.854;9.302;2023-02-28T07:44:09;-0.10;99.90
2100;DHT22;1055;48.854;9.302;2023-02-28T07:46:34;-0.30;99.90
2100;DHT22;1055;48.854;9.302;2023-02-28T07:49:02;-0.20;99.90
2100;DHT22;1055;48.854;9.302;2023-02-28T07:51:29;-0.10;99.90
2100;DHT22;1055;48.854;9.302;2023-02-28T07:53:55;0.10;99.90
2100;DHT22;1055;48.854;9.302;2023-02-28T07:56:20;0.00;99.90
2100;DHT22;1055;48.854;9.302;2023-02-28T07:58:46;-0.10;99.90
2100;DHT22;1055;48.854;9.302;2023-02-28T08:01:12;-0.10;99.90
2100;DHT22;1055;48.854;9.302;2023-02-28T08:03:39;0.00;99.90
2100;DHT22;1055;48.854;9.302;2023-02-28T08:06:07;0.20;99.90
2100;DHT22;1055;48.854;9.302;2023-02-28T08:08:33;0.10;99.90
2100;DHT22;1055;48.854;9.302;2023-02-28T08:11:02;0.00;99.90
2100;DHT22;1055;48.854;9.302;2023-02-28T08:13:29;0.20;99.90
2100;DHT22;1055;48.854;9.302;2023-02-28T08:15:55;-0.10;99.90
2100;DHT22;1055;48.854;9.302;2023-02-28T08:18:22;0.00;99.90
2100;DHT22;1055;48.854;9.302;2023-02-28T08:20:48;0.30;99.90
2100;DHT22;1055;48.854;9.302;2023-02-28T08:23:14;0.40;99.90
2100;DHT22;1055;48.854;9.302;2023-02-28T08:25:39;0.60;99.90
2100;DHT22;1055;48.854;9.302;2023-02-28T08:28:05;0.60;99.90
2100;DHT22;1055;48.854;9.302;2023-02-28T08:30:31;0.70;99.90
2100;DHT22;1055;48.854;9.302;2023-02-28T08:32:56;0.60;99.90
2100;DHT22;1055;48.854;9.302;2023-02-28T08:35:22;0.70;99.90
2100;DHT22;1055;48.854;9.302;2023-02-28T08:37:48;0.60;99.90
2100;DHT22;1055;48.854;9.302;2023-02-28T08:40:14;0.70;99.90
2100;DHT22;1055;48.854;9.302;2023-02-28T08:42:46;0.70;99.90
2100;DHT22;1055;48.854;9.302;2023-02-28T08:45:13;0.70;99.90
2100;DHT22;1055;48.854;9.302;2023-02-28T08:47:40;0.60;99.90
2100;DHT22;1055;48.854;9.302;2023-02-28T08:50:06;0.80;99.90
2100;DHT22;1055;48.854;9.302;2023-02-28T08:52:32;0.70;99.90
2100;DHT22;1055;48.854;9.302;2023-02-28T08:54:58;1.00;99.90
2100;DHT22;1055;48.854;9.302;2023-02-28T08:57:23;1.00;99.90
2100;DHT22;1055;48.854;9.302;2023-02-28T08:59:51;1.10;99.90
2100;DHT22;1055;48.854;9.302;2023-02-28T09:02:17;1.20;99.90
2100;DHT22;1055;48.854;9.302;2023-02-28T09:04:43;1.20;99.90
2100;DHT22;1055;48.854;9.302;2023-02-28T09:07:11;1.20;99.90
2100;DHT22;1055;48.854;9.302;2023-02-28T09:09:37;1.20;99.90
2100;DHT22;1055;48.854;9.302;2023-02-28T09:12:03;1.00;99.90
2100;DHT22;1055;48.854;9.302;2023-02-28T09:14:29;1.00;99.90
2100;DHT22;1055;48.854;9.302;2023-02-28T09:16:54;1.00;99.90
2100;DHT22;1055;48.854;9.302;2023-02-28T09:19:20;1.10;99.90
2100;DHT22;1055;48.854;9.302;2023-02-28T09:21:46;1.20;99.90
2100;DHT22;1055;48.854;9.302;2023-02-28T09:24:11;1.00;99.90
2100;DHT22;1055;48.854;9.302;2023-02-28T09:26:39;1.20;99.90
2100;DHT22;1055;48.854;9.302;2023-02-28T09:29:05;1.30;99.90
2100;DHT22;1055;48.854;9.302;2023-02-28T09:31:32;1.50;99.90
2100;DHT22;1055;48.854;9.302;2023-02-28T09:33:58;1.50;99.90
2100;DHT22;1055;48.854;9.302;2023-02-28T09:36:25;1.30;99.90
2100;DHT22;1055;48.854;9.302;2023-02-28T09:38:52;1.50;99.90
2100;DHT22;1055;48.854;9.302;2023-02-28T09:41:23;1.60;99.90
2100;DHT22;1055;48.854;9.302;2023-02-28T09:43:53;1.10;99.90
2100;DHT22;1055;48.854;9.302;2023-02-28T09:46:37;1.50;99.90
2100;DHT22;1055;48.854;9.302;2023-02-28T09:49:17;1.80;99.90
2100;DHT22;1055;48.854;9.302;2023-02-28T09:54:22;1.50;99.90
2100;DHT22;1055;48.854;9.302;2023-02-28T09:56:51;1.70;99.90
2100;DHT22;1055;48.854;9.302;2023-02-28T10:02:09;1.80;99.90
2100;DHT22;1055;48.854;9.302;2023-02-28T10:04:49;1.80;99.90
2100;DHT22;1055;48.854;9.302;2023-02-28T10:20:01;1.80;99.90
2100;DHT22;1055;48.854;9.302;2023-02-28T10:22:50;1.80;99.90
2100;DHT22;1055;48.854;9.302;2023-02-28T10:28:39;2.20;99.90
2100;DHT22;1055;48.854;9.302;2023-02-28T10:31:14;2.20;99.90
2100;DHT22;1055;48.854;9.302;2023-02-28T10:33:43;2.30;99.90
2100;DHT22;1055;48.854;9.302;2023-02-28T10:36:17;2.30;99.90
2100;DHT22;1055;48.854;9.302;2023-02-28T10:38:44;2.40;99.90
2100;DHT22;1055;48.854;9.302;2023-02-28T10:41:13;2.50;99.90
2100;DHT22;1055;48.854;9.302;2023-02-28T10:43:40;2.30;99.90
2100;DHT22;1055;48.854;9.302;2023-02-28T10:48:44;2.70;99.90
2100;DHT22;1055;48.854;9.302;2023-02-28T10:51:13;2.80;99.90
2100;DHT22;1055;48.854;9.302;2023-02-28T10:53:52;3.00;99.90
2100;DHT22;1055;48.854;9.302;2023-02-28T10:56:24;3.20;99.90
2100;DHT22;1055;48.854;9.302;2023-02-28T10:58:55;3.30;99.90
2100;DHT22;1055;48.854;9.302;2023-02-28T11:01:43;3.50;99.90
2100;DHT22;1055;48.854;9.302;2023-02-28T11:07:01;3.10;99.90
2100;DHT22;1055;48.854;9.302;2023-02-28T11:11:54;3.30;99.90
2100;DHT22;1055;48.854;9.302;2023-02-28T11:16:49;3.30;99.90
2100;DHT22;1055;48.854;9.302;2023-02-28T11:19:28;3.50;99.90
2100;DHT22;1055;48.854;9.302;2023-02-28T11:22:00;3.50;99.90
2100;DHT22;1055;48.854;9.302;2023-02-28T11:24:27;3.70;99.90
2100;DHT22;1055;48.854;9.302;2023-02-28T11:26:55;3.40;99.90
2100;DHT22;1055;48.854;9.302;2023-02-28T11:29:23;3.60;99.90
2100;DHT22;1055;48.854;9.302;2023-02-28T11:32:05;3.70;99.90
2100;DHT22;1055;48.854;9.302;2023-02-28T11:34:31;3.70;99.90
2100;DHT22;1055;48.854;9.302;2023-02-28T11:36:59;3.40;99.90
2100;DHT22;1055;48.854;9.302;2023-02-28T11:39:26;3.60;99.90
2100;DHT22;1055;48.854;9.302;2023-02-28T11:42:13;3.50;99.90
2100;DHT22;1055;48.854;9.302;2023-02-28T11:48:01;3.40;99.90
2100;DHT22;1055;48.854;9.302;2023-02-28T11:53:18;3.40;99.90
2100;DHT22;1055;48.854;9.302;2023-02-28T12:06:31;3.80;98.50
2100;DHT22;1055;48.854;9.302;2023-02-28T12:28:02;4.50;97.40
2100;DHT22;1055;48.854;9.302;2023-02-28T12:30:31;4.70;96.10
2100;DHT22;1055;48.854;9.302;2023-02-28T12:33:18;4.70;95.60
2100;DHT22;1055;48.854;9.302;2023-02-28T12:35:56;4.80;95.80
2100;DHT22;1055;48.854;9.302;2023-02-28T12:38:27;5.10;95.00
2100;DHT22;1055;48.854;9.302;2023-02-28T12:41:01;5.00;95.30
2100;DHT22;1055;48.854;9.302;2023-02-28T12:43:34;5.00;94.80
2100;DHT22;1055;48.854;9.302;2023-02-28T12:46:12;5.20;94.90
2100;DHT22;1055;48.854;9.302;2023-02-28T12:48:52;5.60;93.70
2100;DHT22;1055;48.854;9.302;2023-02-28T12:51:21;5.50;92.90
2100;DHT22;1055;48.854;9.302;2023-02-28T12:59:56;5.70;91.80
2100;DHT22;1055;48.854;9.302;2023-02-28T13:05:25;6.20;92.00
2100;DHT22;1055;48.854;9.302;2023-02-28T13:11:06;6.30;90.90
2100;DHT22;1055;48.854;9.302;2023-02-28T13:13:32;6.50;90.20
2100;DHT22;1055;48.854;9.302;2023-02-28T13:16:02;7.00;87.40
2100;DHT22;1055;48.854;9.302;2023-02-28T13:18:41;7.00;86.50
2100;DHT22;1055;48.854;9.302;2023-02-28T13:21:21;6.50;83.90
2100;DHT22;1055;48.854;9.302;2023-02-28T13:34:35;7.00;82.90
2100;DHT22;1055;48.854;9.302;2023-02-28T13:39:56;8.00;82.60
2100;DHT22;1055;48.854;9.302;2023-02-28T13:45:20;8.10;79.00
2100;DHT22;1055;48.854;9.302;2023-02-28T13:47:59;8.10;77.40
2100;DHT22;1055;48.854;9.302;2023-02-28T14:06:39;7.90;76.90
2100;DHT22;1055;48.854;9.302;2023-02-28T14:09:25;8.30;74.80
2100;DHT22;1055;48.854;9.302;2023-02-28T14:11:52;7.90;75.60
2100;DHT22;1055;48.854;9.302;2023-02-28T14:17:17;7.70;76.60
2100;DHT22;1055;48.854;9.302;2023-02-28T14:19:46;7.90;74.60
2100;DHT22;1055;48.854;9.302;2023-02-28T14:25:17;8.00;75.30
2100;DHT22;1055;48.854;9.302;2023-02-28T14:33:40;8.70;73.50
2100;DHT22;1055;48.854;9.302;2023-02-28T14:38:45;8.80;72.20
2100;DHT22;1055;48.854;9.302;2023-02-28T14:41:18;8.30;71.30
2100;DHT22;1055;48.854;9.302;2023-02-28T14:43:55;8.20;72.90
2100;DHT22;1055;48.854;9.302;2023-02-28T14:46:22;8.40;72.40
2100;DHT22;1055;48.854;9.302;2023-02-28T14:48:49;8.10;72.40
2100;DHT22;1055;48.854;9.302;2023-02-28T14:51:20;8.30;73.00
2100;DHT22;1055;48.854;9.302;2023-02-28T14:53:50;8.00;73.50
2100;DHT22;1055;48.854;9.302;2023-02-28T14:56:21;8.60;75.00
2100;DHT22;1055;48.854;9.302;2023-02-28T14:58:56;9.00;74.10
2100;DHT22;1055;48.854;9.302;2023-02-28T15:01:24;8.70;72.60
2100;DHT22;1055;48.854;9.302;2023-02-28T15:04:01;8.20;74.40
2100;DHT22;1055;48.854;9.302;2023-02-28T15:06:30;8.30;73.60
2100;DHT22;1055;48.854;9.302;2023-02-28T15:09:10;8.80;73.10
2100;DHT22;1055;48.854;9.302;2023-02-28T15:11:39;8.80;73.70
2100;DHT22;1055;48.854;9.302;2023-02-28T15:14:18;8.60;72.60
2100;DHT22;1055;48.854;9.302;2023-02-28T15:16:51;8.30;72.60
2100;DHT22;1055;48.854;9.302;2023-02-28T15:19:24;8.80;72.70
2100;DHT22;1055;48.854;9.302;2023-02-28T15:21:59;8.80;71.10
2100;DHT22;1055;48.854;9.302;2023-02-28T15:24:38;8.30;72.60
2100;DHT22;1055;48.854;9.302;2023-02-28T15:27:14;8.30;73.40
2100;DHT22;1055;48.854;9.302;2023-02-28T15:29:46;8.70;71.90
2100;DHT22;1055;48.854;9.302;2023-02-28T15:34:49;8.20;71.90
2100;DHT22;1055;48.854;9.302;2023-02-28T15:37:45;7.30;73.50
2100;DHT22;1055;48.854;9.302;2023-02-28T15:43:15;7.80;76.40
2100;DHT22;1055;48.854;9.302;2023-02-28T15:45:54;6.90;74.90
2100;DHT22;1055;48.854;9.302;2023-02-28T15:48:25;7.30;79.40
2100;DHT22;1055;48.854;9.302;2023-02-28T15:54:23;7.50;77.80
2100;DHT22;1055;48.854;9.302;2023-02-28T15:56:56;7.30;76.40
2100;DHT22;1055;48.854;9.302;2023-02-28T15:59:30;7.40;76.60
2100;DHT22;1055;48.854;9.302;2023-02-28T16:02:15;7.10;75.80
2100;DHT22;1055;48.854;9.302;2023-02-28T16:07:37;7.20;76.00
2100;DHT22;1055;48.854;9.302;2023-02-28T16:10:10;7.30;76.70
2100;DHT22;1055;48.854;9.302;2023-02-28T16:12:40;7.10;76.40
2100;DHT22;1055;48.854;9.302;2023-02-28T16:15:32;7.10;76.30
2100;DHT22;1055;48.854;9.302;2023-02-28T16:18:01;7.00;76.30
2100;DHT22;1055;48.854;9.302;2023-02-28T16:20:30;7.20;76.50
2100;DHT22;1055;48.854;9.302;2023-02-28T16:22:59;6.60;75.90
2100;DHT22;1055;48.854;9.302;2023-02-28T16:25:37;6.10;77.90
2100;DHT22;1055;48.854;9.302;2023-02-28T16:28:30;6.70;78.70
2100;DHT22;1055;48.854;9.302;2023-02-28T16:31:00;6.70;77.50
2100;DHT22;1055;48.854;9.302;2023-02-28T16:33:34;6.60;77.30
2100;DHT22;1055;48.854;9.302;2023-02-28T16:36:02;6.70;78.20
2100;DHT22;1055;48.854;9.302;2023-02-28T16:38:32;6.80;77.70
2100;DHT22;1055;48.854;9.302;2023-02-28T16:41:01;6.90;77.90
2100;DHT22;1055;48.854;9.302;2023-02-28T16:43:29;6.80;77.40
2100;DHT22;1055;48.854;9.302;2023-02-28T16:45:58;6.80;77.70
2100;DHT22;1055;48.854;9.302;2023-02-28T16:48:24;6.80;77.40
2100;DHT22;1055;48.854;9.302;2023-02-28T16:50:55;6.70;77.70
2100;DHT22;1055;48.854;9.302;2023-02-28T16:53:26;6.50;78.90
2100;DHT22;1055;48.854;9.302;2023-02-28T16:55:52;6.40;80.00
2100;DHT22;1055;48.854;9.302;2023-02-28T16:58:18;6.20;81.30
2100;DHT22;1055;48.854;9.302;2023-02-28T17:00:48;6.30;81.30
2100;DHT22;1055;48.854;9.302;2023-02-28T17:03:33;6.00;81.90
2100;DHT22;1055;48.854;9.302;2023-02-28T17:06:05;5.60;83.00
2100;DHT22;1055;48.854;9.302;2023-02-28T17:08:34;5.40;84.70
2100;DHT22;1055;48.854;9.302;2023-02-28T17:11:06;5.50;85.50
2100;DHT22;1055;48.854;9.302;2023-02-28T17:13:37;5.40;85.10
2100;DHT22;1055;48.854;9.302;2023-02-28T17:16:09;5.20;86.60
2100;DHT22;1055;48.854;9.302;2023-02-28T17:18:40;5.20;86.60
2100;DHT22;1055;48.854;9.302;2023-02-28T17:21:13;5.30;86.80
2100;DHT22;1055;48.854;9.302;2023-02-28T17:23:39;4.90;86.80
2100;DHT22;1055;48.854;9.302;2023-02-28T17:26:14;4.70;87.00
2100;DHT22;1055;48.854;9.302;2023-02-28T17:28:42;4.90;87.40
2100;DHT22;1055;48.854;9.302;2023-02-28T17:31:14;4.60;87.40
2100;DHT22;1055;48.854;9.302;2023-02-28T17:33:41;4.60;88.50
2100;DHT22;1055;48.854;9.302;2023-02-28T17:36:15;4.70;88.60
2100;DHT22;1055;48.854;9.302;2023-02-28T17:38:44;4.80;88.20
2100;DHT22;1055;48.854;9.302;2023-02-28T17:41:10;5.00;88.00
2100;DHT22;1055;48.854;9.302;2023-02-28T17:43:42;5.10;87.70
2100;DHT22;1055;48.854;9.302;2023-02-28T17:46:38;4.80;88.10
2100;DHT22;1055;48.854;9.302;2023-02-28T17:49:05;4.60;89.70
2100;DHT22;1055;48.854;9.302;2023-02-28T17:51:38;4.70;89.60
2100;DHT22;1055;48.854;9.302;2023-02-28T17:54:05;4.10;90.70
2100;DHT22;1055;48.854;9.302;2023-02-28T17:56:35;4.40;90.90
2100;DHT22;1055;48.854;9.302;2023-02-28T17:59:10;4.30;91.10
2100;DHT22;1055;48.854;9.302;2023-02-28T18:01:37;4.50;90.80
2100;DHT22;1055;48.854;9.302;2023-02-28T18:04:06;4.50;90.50
2100;DHT22;1055;48.854;9.302;2023-02-28T18:06:41;4.60;90.70
2100;DHT22;1055;48.854;9.302;2023-02-28T18:09:21;4.60;90.60
2100;DHT22;1055;48.854;9.302;2023-02-28T18:11:50;4.10;91.20
2100;DHT22;1055;48.854;9.302;2023-02-28T18:14:24;4.10;91.80
2100;DHT22;1055;48.854;9.302;2023-02-28T18:16:55;4.00;91.70
2100;DHT22;1055;48.854;9.302;2023-02-28T18:19:32;3.80;92.50
2100;DHT22;1055;48.854;9.302;2023-02-28T18:22:06;4.00;92.70
2100;DHT22;1055;48.854;9.302;2023-02-28T18:24:38;4.20;92.10
2100;DHT22;1055;48.854;9.302;2023-02-28T18:27:07;4.30;91.80
2100;DHT22;1055;48.854;9.302;2023-02-28T18:29:39;4.10;92.20
2100;DHT22;1055;48.854;9.302;2023-02-28T18:32:05;4.10;92.40
2100;DHT22;1055;48.854;9.302;2023-02-28T18:34:32;4.00;92.50
2100;DHT22;1055;48.854;9.302;2023-02-28T18:37:03;4.00;92.90
2100;DHT22;1055;48.854;9.302;2023-02-28T18:39:34;3.80;93.20
2100;DHT22;1055;48.854;9.302;2023-02-28T18:42:01;3.90;93.50
2100;DHT22;1055;48.854;9.302;2023-02-28T18:44:30;4.00;93.10
2100;DHT22;1055;48.854;9.302;2023-02-28T18:47:06;4.10;92.90
2100;DHT22;1055;48.854;9.302;2023-02-28T18:49:37;4.10;92.80
2100;DHT22;1055;48.854;9.302;2023-02-28T18:52:07;4.20;92.60
2100;DHT22;1055;48.854;9.302;2023-02-28T18:54:35;4.10;92.70
2100;DHT22;1055;48.854;9.302;2023-02-28T18:57:04;4.20;92.60
2100;DHT22;1055;48.854;9.302;2023-02-28T18:59:32;4.10;92.60
2100;DHT22;1055;48.854;9.302;2023-02-28T19:01:59;4.00;92.60
2100;DHT22;1055;48.854;9.302;2023-02-28T19:04:26;4.10;92.80
2100;DHT22;1055;48.854;9.302;2023-02-28T19:06:55;3.90;92.80
2100;DHT22;1055;48.854;9.302;2023-02-28T19:09:22;3.90;92.90
2100;DHT22;1055;48.854;9.302;2023-02-28T19:11:49;3.70;92.90
2100;DHT22;1055;48.854;9.302;2023-02-28T19:14:18;3.70;93.30
2100;DHT22;1055;48.854;9.302;2023-02-28T19:16:48;3.80;93.30
2100;DHT22;1055;48.854;9.302;2023-02-28T19:19:21;3.70;93.30
2100;DHT22;1055;48.854;9.302;2023-02-28T19:21:54;3.70;93.40
2100;DHT22;1055;48.854;9.302;2023-02-28T19:24:21;3.70;93.70
2100;DHT22;1055;48.854;9.302;2023-02-28T19:26:52;3.70;93.80